N717SM KTPF-KFLL
Flight info
| Callsign | N717SM |
|---|---|
| Flight time | 0h 30m |
| Altitude | 25000 |
| Route | CROWD GILBI T349 NEWER |
| Aircraft | C750/M-SBDE3FGHRWXY/S |
Departure
| Time | 2026-05-05 21:53 |
|---|---|
| Airport | Peter O Knight Airport (KTPF) |
Arrival
| Time | 2026-05-05 22:23 |
|---|---|
| Airport | Fort Lauderdale Hollywood International Airport (KFLL) |
| Time | Latitude | Longitude | Altitude | Speed | Heading |
|---|---|---|---|---|---|
| 2026-05-05 21:47 | 27.91398 | -82.45036 | 16 ft | 0 kts | 343° |
| 2026-05-05 21:51 | 27.91446 | -82.45061 | 14 ft | 8 kts | 24° |
| 2026-05-05 21:51 | 27.91520 | -82.44985 | 15 ft | 19 kts | 34° |
| 2026-05-05 21:51 | 27.91651 | -82.44873 | 15 ft | 26 kts | 38° |
| 2026-05-05 21:52 | 27.91850 | -82.44719 | 16 ft | 6 kts | 341° |
| 2026-05-05 21:52 | 27.91858 | -82.44762 | 16 ft | 5 kts | 212° |
| 2026-05-05 21:52 | 27.91536 | -82.45031 | 15 ft | 120 kts | 217° |
| 2026-05-05 21:53 | 27.90718 | -82.45418 | 664 ft | 134 kts | 176° |
| 2026-05-05 21:53 | 27.89898 | -82.44798 | 1251 ft | 151 kts | 128° |
| 2026-05-05 21:53 | 27.89314 | -82.43819 | 2076 ft | 154 kts | 120° |
| 2026-05-05 21:53 | 27.88761 | -82.42700 | 2708 ft | 173 kts | 118° |
| 2026-05-05 21:54 | 27.88185 | -82.41494 | 3565 ft | 174 kts | 117° |
| 2026-05-05 21:54 | 27.87617 | -82.40287 | 4420 ft | 175 kts | 117° |
| 2026-05-05 21:54 | 27.87038 | -82.39057 | 5235 ft | 179 kts | 118° |
| 2026-05-05 21:54 | 27.86451 | -82.37811 | 6024 ft | 181 kts | 118° |
| 2026-05-05 21:55 | 27.85849 | -82.36535 | 6745 ft | 187 kts | 118° |
| 2026-05-05 21:55 | 27.85210 | -82.35181 | 7284 ft | 210 kts | 119° |
| 2026-05-05 21:55 | 27.84473 | -82.33621 | 7848 ft | 240 kts | 118° |
| 2026-05-05 21:55 | 27.83644 | -82.31862 | 8540 ft | 266 kts | 119° |
| 2026-05-05 21:56 | 27.82732 | -82.29927 | 9238 ft | 291 kts | 119° |
| 2026-05-05 21:56 | 27.81750 | -82.27847 | 10083 ft | 305 kts | 119° |
| 2026-05-05 21:56 | 27.80736 | -82.25701 | 10703 ft | 325 kts | 119° |
| 2026-05-05 21:56 | 27.79628 | -82.23361 | 11054 ft | 352 kts | 118° |
| 2026-05-05 21:57 | 27.78432 | -82.20830 | 11314 ft | 377 kts | 118° |
| 2026-05-05 21:57 | 27.77191 | -82.18205 | 12145 ft | 381 kts | 118° |
| 2026-05-05 21:57 | 27.75934 | -82.15551 | 12934 ft | 388 kts | 118° |
| 2026-05-05 21:57 | 27.74648 | -82.12839 | 13685 ft | 395 kts | 118° |
| 2026-05-05 21:58 | 27.73342 | -82.10083 | 14380 ft | 401 kts | 118° |
| 2026-05-05 21:58 | 27.72017 | -82.07288 | 15087 ft | 406 kts | 118° |
| 2026-05-05 21:58 | 27.70674 | -82.04459 | 15784 ft | 412 kts | 118° |
| 2026-05-05 21:58 | 27.69293 | -82.01553 | 16018 ft | 432 kts | 117° |
| 2026-05-05 21:59 | 27.67869 | -81.98558 | 16823 ft | 431 kts | 117° |
| 2026-05-05 21:59 | 27.66243 | -81.95699 | 17412 ft | 440 kts | 130° |
| 2026-05-05 21:59 | 27.63992 | -81.93355 | 18156 ft | 441 kts | 141° |
| 2026-05-05 21:59 | 27.61641 | -81.91112 | 18831 ft | 446 kts | 141° |
| 2026-05-05 22:00 | 27.59286 | -81.88788 | 19477 ft | 452 kts | 140° |
| 2026-05-05 22:00 | 27.56939 | -81.86402 | 20145 ft | 458 kts | 139° |
| 2026-05-05 22:00 | 27.54539 | -81.84003 | 20822 ft | 464 kts | 140° |
| 2026-05-05 22:00 | 27.52091 | -81.81610 | 21488 ft | 469 kts | 141° |
| 2026-05-05 22:01 | 27.49613 | -81.79173 | 22146 ft | 476 kts | 141° |
| 2026-05-05 22:01 | 27.47120 | -81.76686 | 22818 ft | 482 kts | 140° |
| 2026-05-05 22:01 | 27.44594 | -81.74172 | 23493 ft | 487 kts | 141° |
| 2026-05-05 22:01 | 27.42031 | -81.71648 | 24066 ft | 493 kts | 141° |
| 2026-05-05 22:02 | 27.39440 | -81.69099 | 24642 ft | 494 kts | 141° |
| 2026-05-05 22:02 | 27.36840 | -81.66527 | 25015 ft | 505 kts | 141° |
| 2026-05-05 22:02 | 27.34151 | -81.63869 | 25015 ft | 524 kts | 141° |
| 2026-05-05 22:02 | 27.32317 | -81.62060 | 25015 ft | 535 kts | 140° |
| 2026-05-05 22:03 | 27.28523 | -81.58324 | 25023 ft | 547 kts | 141° |
| 2026-05-05 22:03 | 27.26623 | -81.56451 | 25028 ft | 550 kts | 141° |
| 2026-05-05 22:03 | 27.23740 | -81.53610 | 25028 ft | 552 kts | 141° |
| 2026-05-05 22:03 | 27.20847 | -81.50764 | 25024 ft | 553 kts | 141° |
| 2026-05-05 22:04 | 27.17978 | -81.47944 | 25007 ft | 534 kts | 141° |
| 2026-05-05 22:04 | 27.15296 | -81.45301 | 24972 ft | 494 kts | 141° |
| 2026-05-05 22:04 | 27.12759 | -81.42812 | 24937 ft | 482 kts | 141° |
| 2026-05-05 22:04 | 27.10211 | -81.40326 | 24920 ft | 486 kts | 141° |
| 2026-05-05 22:05 | 27.07664 | -81.37831 | 24916 ft | 487 kts | 141° |
| 2026-05-05 22:05 | 27.05110 | -81.35319 | 24912 ft | 488 kts | 141° |
| 2026-05-05 22:05 | 27.02556 | -81.32817 | 24913 ft | 488 kts | 141° |
| 2026-05-05 22:05 | 26.99995 | -81.30316 | 24929 ft | 488 kts | 141° |
| 2026-05-05 22:06 | 26.97438 | -81.27817 | 24924 ft | 487 kts | 141° |
| 2026-05-05 22:06 | 26.94880 | -81.25314 | 24924 ft | 488 kts | 141° |
| 2026-05-05 22:06 | 26.92329 | -81.22821 | 24921 ft | 487 kts | 141° |
| 2026-05-05 22:06 | 26.89755 | -81.20311 | 24506 ft | 492 kts | 141° |
| 2026-05-05 22:07 | 26.87192 | -81.17810 | 23859 ft | 484 kts | 141° |
| 2026-05-05 22:07 | 26.84680 | -81.15358 | 23181 ft | 475 kts | 141° |
| 2026-05-05 22:07 | 26.82213 | -81.12954 | 22565 ft | 466 kts | 141° |
| 2026-05-05 22:07 | 26.79781 | -81.10590 | 21959 ft | 461 kts | 141° |
| 2026-05-05 22:08 | 26.77379 | -81.08253 | 21358 ft | 456 kts | 141° |
| 2026-05-05 22:08 | 26.74999 | -81.05936 | 20758 ft | 450 kts | 141° |
| 2026-05-05 22:08 | 26.72648 | -81.03651 | 20181 ft | 445 kts | 141° |
| 2026-05-05 22:08 | 26.70319 | -81.01390 | 19598 ft | 440 kts | 141° |
| 2026-05-05 22:09 | 26.68021 | -80.99158 | 19017 ft | 435 kts | 141° |
| 2026-05-05 22:09 | 26.65750 | -80.96955 | 18451 ft | 431 kts | 141° |
| 2026-05-05 22:09 | 26.63497 | -80.94769 | 17844 ft | 426 kts | 141° |
| 2026-05-05 22:09 | 26.61301 | -80.92641 | 17293 ft | 422 kts | 141° |
| 2026-05-05 22:10 | 26.59095 | -80.90503 | 16742 ft | 418 kts | 141° |
| 2026-05-05 22:10 | 26.56908 | -80.88387 | 16193 ft | 414 kts | 141° |
| 2026-05-05 22:10 | 26.54741 | -80.86289 | 15652 ft | 410 kts | 141° |
| 2026-05-05 22:10 | 26.52595 | -80.84212 | 15115 ft | 406 kts | 141° |
| 2026-05-05 22:11 | 26.50469 | -80.82157 | 14584 ft | 402 kts | 141° |
| 2026-05-05 22:11 | 26.48362 | -80.80122 | 14056 ft | 399 kts | 141° |
| 2026-05-05 22:11 | 26.46274 | -80.78105 | 13507 ft | 395 kts | 141° |
| 2026-05-05 22:11 | 26.44211 | -80.76113 | 12975 ft | 390 kts | 141° |
| 2026-05-05 22:12 | 26.42175 | -80.74148 | 12470 ft | 385 kts | 141° |
| 2026-05-05 22:12 | 26.40070 | -80.72351 | 11923 ft | 378 kts | 150° |
| 2026-05-05 22:12 | 26.37802 | -80.70921 | 11468 ft | 373 kts | 154° |
| 2026-05-05 22:12 | 26.35575 | -80.69587 | 10993 ft | 352 kts | 154° |
| 2026-05-05 22:13 | 26.33503 | -80.68294 | 10545 ft | 332 kts | 153° |
| 2026-05-05 22:13 | 26.31554 | -80.67045 | 10126 ft | 315 kts | 153° |
| 2026-05-05 22:13 | 26.29690 | -80.65873 | 9701 ft | 302 kts | 154° |
| 2026-05-05 22:13 | 26.27875 | -80.64749 | 9303 ft | 296 kts | 154° |
| 2026-05-05 22:14 | 26.26084 | -80.63632 | 8919 ft | 294 kts | 153° |
| 2026-05-05 22:14 | 26.24304 | -80.62516 | 8535 ft | 294 kts | 153° |
| 2026-05-05 22:14 | 26.22528 | -80.61403 | 8151 ft | 292 kts | 153° |
| 2026-05-05 22:14 | 26.20762 | -80.60299 | 7776 ft | 290 kts | 153° |
| 2026-05-05 22:15 | 26.19010 | -80.59204 | 7391 ft | 288 kts | 152° |
| 2026-05-05 22:15 | 26.17269 | -80.58115 | 7015 ft | 286 kts | 152° |
| 2026-05-05 22:15 | 26.15538 | -80.57033 | 6636 ft | 285 kts | 152° |
| 2026-05-05 22:15 | 26.13818 | -80.55958 | 6258 ft | 283 kts | 152° |
| 2026-05-05 22:16 | 26.12106 | -80.54890 | 5878 ft | 281 kts | 152° |
| 2026-05-05 22:16 | 26.10410 | -80.53831 | 5512 ft | 278 kts | 152° |
| 2026-05-05 22:16 | 26.08850 | -80.52587 | 5062 ft | 278 kts | 134° |
| 2026-05-05 22:16 | 26.07985 | -80.50713 | 4909 ft | 268 kts | 106° |
| 2026-05-05 22:17 | 26.07865 | -80.50029 | 4919 ft | 268 kts | 98° |
| 2026-05-05 22:17 | 26.07826 | -80.48249 | 5024 ft | 275 kts | 88° |
| 2026-05-05 22:17 | 26.07882 | -80.46103 | 5037 ft | 283 kts | 89° |
| 2026-05-05 22:17 | 26.07877 | -80.43902 | 4693 ft | 285 kts | 91° |
| 2026-05-05 22:18 | 26.07841 | -80.41720 | 4316 ft | 279 kts | 90° |
| 2026-05-05 22:18 | 26.07823 | -80.39589 | 3952 ft | 273 kts | 90° |
| 2026-05-05 22:18 | 26.07810 | -80.37507 | 3602 ft | 267 kts | 90° |
| 2026-05-05 22:18 | 26.07798 | -80.35501 | 3273 ft | 246 kts | 90° |
| 2026-05-05 22:19 | 26.07787 | -80.33697 | 2956 ft | 221 kts | 89° |
| 2026-05-05 22:19 | 26.07777 | -80.32055 | 2683 ft | 204 kts | 90° |
| 2026-05-05 22:19 | 26.07767 | -80.30605 | 2422 ft | 168 kts | 89° |
| 2026-05-05 22:19 | 26.07757 | -80.29437 | 2183 ft | 135 kts | 89° |
| 2026-05-05 22:20 | 26.07750 | -80.28461 | 2009 ft | 120 kts | 88° |
| 2026-05-05 22:20 | 26.07747 | -80.27541 | 1920 ft | 121 kts | 88° |
| 2026-05-05 22:20 | 26.07744 | -80.26587 | 1775 ft | 125 kts | 89° |
| 2026-05-05 22:20 | 26.07738 | -80.25609 | 1607 ft | 126 kts | 89° |
| 2026-05-05 22:21 | 26.07733 | -80.24652 | 1442 ft | 122 kts | 90° |
| 2026-05-05 22:21 | 26.07727 | -80.23697 | 1284 ft | 126 kts | 89° |
| 2026-05-05 22:21 | 26.07722 | -80.22731 | 1099 ft | 121 kts | 88° |
| 2026-05-05 22:21 | 26.07714 | -80.21799 | 946 ft | 122 kts | 90° |
| 2026-05-05 22:22 | 26.07725 | -80.20845 | 809 ft | 123 kts | 90° |
| 2026-05-05 22:22 | 26.07695 | -80.19906 | 629 ft | 120 kts | 90° |
| 2026-05-05 22:22 | 26.07693 | -80.18988 | 462 ft | 120 kts | 87° |
| 2026-05-05 22:22 | 26.07707 | -80.18056 | 281 ft | 119 kts | 89° |
| 2026-05-05 22:23 | 26.07705 | -80.17138 | 145 ft | 120 kts | 88° |
| 2026-05-05 22:23 | 26.07688 | -80.16221 | 26 ft | 111 kts | 89° |
| 2026-05-05 22:23 | 26.07683 | -80.15493 | 12 ft | 68 kts | 90° |
| 2026-05-05 22:23 | 26.07683 | -80.15163 | 12 ft | 16 kts | 94° |
| 2026-05-05 22:24 | 26.07640 | -80.15125 | 12 ft | 8 kts | 181° |
| 2026-05-05 22:24 | 26.07584 | -80.15124 | 12 ft | 8 kts | 180° |
| 2026-05-05 22:24 | 26.07529 | -80.15125 | 12 ft | 10 kts | 181° |
| 2026-05-05 22:24 | 26.07367 | -80.15128 | 12 ft | 26 kts | 180° |
| 2026-05-05 22:25 | 26.07200 | -80.15128 | 12 ft | 21 kts | 180° |
| 2026-05-05 22:25 | 26.07054 | -80.15127 | 12 ft | 16 kts | 180° |
| 2026-05-05 22:25 | 26.06985 | -80.15166 | 12 ft | 10 kts | 271° |
| 2026-05-05 22:25 | 26.06987 | -80.15283 | 12 ft | 18 kts | 271° |
| 2026-05-05 22:26 | 26.06969 | -80.15414 | 12 ft | 16 kts | 233° |
| 2026-05-05 22:26 | 26.06887 | -80.15497 | 12 ft | 19 kts | 223° |
| 2026-05-05 22:26 | 26.06783 | -80.15636 | 12 ft | 22 kts | 247° |
| 2026-05-05 22:26 | 26.06779 | -80.15760 | 12 ft | 9 kts | 272° |
| 2026-05-05 22:27 | 26.06783 | -80.15841 | 12 ft | 17 kts | 284° |
| 2026-05-05 22:27 | 26.06808 | -80.15979 | 12 ft | 18 kts | 269° |
| 2026-05-05 22:27 | 26.06780 | -80.16054 | 12 ft | 1 kts | 334° |
| 2026-05-05 22:27 | 26.06782 | -80.16053 | 12 ft | 1 kts | 360° |
| 2026-05-05 22:28 | 26.06777 | -80.16053 | 12 ft | 0 kts | 0° |